Impacts METAR Board
IDs:

KMCO - Orlando Intl, FL, US

Updated at: 2100 UTC 06 Dec 2019
Potential Impact None Slight Moderate High
Time 06/09Z 06/10Z 06/11Z 06/12Z 06/13Z 06/14Z 06/15Z 06/16Z 06/17Z 06/18Z 06/19Z 06/20Z 06/21Z
Temp51 53 52 53 55 61 67 72 73 76 76 77 76
Dewpt45 46 46 46 48 48 48 52 54 54 54 54 54
Altim30.17 30.16 30.17 30.19 30.20 30.21 30.22 30.20 30.18 30.14 30.13 30.12 30.14
VIS10 10 10 10 10 10 10 10 10 10 10 10 10
CIG250 250 250 -- -- -- -- -- -- -- -- -- --
CoverBKNBKNBKNSCTSCTSCTSCTSCTFEWSCTSCTFEWFEW
FltCatVFRVFRVFRVFRVFRVFRVFRVFRVFRVFRVFRVFRVFR
WX--------------------------
WDir03603603503503602040200200200220220
WSpd0 4 4 4 4 4 5 4 3 6 7 8 7
WGst-- -- -- -- -- -- -- -- -- -- -- -- --
Raw hourly METARs
KMCO 060853Z 00000KT 10SM BKN250 11/07 A3017 RMK AO2 SLP215 T01060072 56005
KMCO 060953Z 36004KT 10SM BKN250 12/08 A3016 RMK AO2 SLP212 T01170078
KMCO 061053Z 36004KT 10SM BKN250 11/08 A3017 RMK AO2 SLP216 T01110078
KMCO 061153Z 35004KT 10SM FEW015 FEW100 SCT250 12/08 A3019 RMK AO2 SLP221 T01170078 10122 20100 53006
KMCO 061253Z 35004KT 10SM FEW100 SCT250 13/09 A3020 RMK AO2 SLP225 T01280089
KMCO 061353Z 36004KT 10SM FEW140 SCT250 16/09 A3021 RMK AO2 SLP230 T01610089
KMCO 061453Z 02005KT 10SM FEW150 SCT250 19/09 A3022 RMK AO2 SLP230 T01940089 51010
KMCO 061553Z 04004KT 10SM FEW040 FEW150 SCT250 22/11 A3020 RMK AO2 SLP226 T02220111
KMCO 061653Z 20003KT 10SM FEW040 FEW250 23/12 A3018 RMK AO2 SLP217 T02280122
KMCO 061753Z 20006KT 10SM SCT044 24/12 A3014 RMK AO2 SLP205 T02440122 10250 20111 58025
KMCO 061853Z 20007KT 10SM SCT042 SCT250 24/12 A3013 RMK AO2 SLP200 T02440122
KMCO 061953Z 22008KT 10SM FEW042 FEW250 25/12 A3012 RMK AO2 SLP199 T02500122
KMCO 062053Z 22007KT 10SM FEW046 FEW250 24/12 A3014 RMK AO2 SLP204 T02440122 55001



Page loaded:  21:16 UTC  |   01:16 PM Pacific  |   02:16 PM Mountain  |   03:16 PM Central  |   04:16 PM Eastern

 

ADVISORIES

FORECASTS

FORECASTS

OBSERVATIONS

USER TOOLS

ABOUT US